OAKB/KBL METAR and TAF weather

Enter ICAO airport designator
Station Type Date Time Source
OAKB METAR 2020/07/06 19:50 UTC NOAA

OAKB 061950Z 07008KT CAVOK 23/03 Q1012 RMK A2990 BLU BLU


Station Type Date Time Source
OAKB Decoded METAR 2020/07/06 19:50 UTC NOAA

Kabul Airport, Afghanistan (OAKB) 34-38N 069-12E
Jul 06, 2020 - 03:50 PM EDT / 2020.07.06 1950 UTC
Wind: from the ENE (070 degrees) at 9 MPH (8 KT):0
Visibility: greater than 7 mile(s):0
Temperature: 73 F (23 C)
Dew Point: 37 F (3 C)
Relative Humidity: 26%
Pressure (altimeter): 29.88 in. Hg (1012 hPa)
ob: OAKB 061950Z 07008KT CAVOK 23/03 Q1012 RMK A2990 BLU BLU
cycle: 20

Station Type Date Time Source
OAKB TAF 2020/07/06 18:05 UTC NOAA

TAF OAKB 061705Z 0618/0718 VRB02KT CAVOK
BECMG 0706/0708 02010G20KT SCT100
TEMPO 0712/0718 02020G30KT

Example: see airport list